sensor_id;sensor_type;location;lat;lon;timestamp;P1;durP1;ratioP1;P2;durP2;ratioP2
62535;SDS011;63050;47.514;18.920;2023-01-01T00:02:23;16.80;;;13.50;;
62535;SDS011;63050;47.514;18.920;2023-01-01T00:07:24;21.70;;;14.40;;
62535;SDS011;63050;47.514;18.920;2023-01-01T00:12:25;21.30;;;15.00;;
62535;SDS011;63050;47.514;18.920;2023-01-01T00:17:28;28.10;;;19.40;;
62535;SDS011;63050;47.514;18.920;2023-01-01T00:22:29;25.70;;;19.40;;
62535;SDS011;63050;47.514;18.920;2023-01-01T00:27:30;30.90;;;21.30;;
62535;SDS011;63050;47.514;18.920;2023-01-01T00:32:32;33.00;;;24.90;;
62535;SDS011;63050;47.514;18.920;2023-01-01T00:37:33;37.00;;;24.90;;
62535;SDS011;63050;47.514;18.920;2023-01-01T00:42:34;24.50;;;18.10;;
62535;SDS011;63050;47.514;18.920;2023-01-01T00:47:35;28.10;;;20.90;;
62535;SDS011;63050;47.514;18.920;2023-01-01T00:52:36;26.00;;;19.90;;
62535;SDS011;63050;47.514;18.920;2023-01-01T00:57:37;22.10;;;18.30;;
62535;SDS011;63050;47.514;18.920;2023-01-01T01:02:38;25.20;;;18.30;;
62535;SDS011;63050;47.514;18.920;2023-01-01T01:07:40;23.80;;;17.50;;
62535;SDS011;63050;47.514;18.920;2023-01-01T01:12:41;21.50;;;14.00;;
62535;SDS011;63050;47.514;18.920;2023-01-01T01:17:42;16.40;;;12.20;;
62535;SDS011;63050;47.514;18.920;2023-01-01T01:22:43;14.10;;;10.90;;
62535;SDS011;63050;47.514;18.920;2023-01-01T01:27:44;12.10;;;9.30;;
62535;SDS011;63050;47.514;18.920;2023-01-01T01:32:46;13.10;;;8.80;;
62535;SDS011;63050;47.514;18.920;2023-01-01T01:37:47;10.60;;;7.80;;
62535;SDS011;63050;47.514;18.920;2023-01-01T01:42:48;11.30;;;7.80;;
62535;SDS011;63050;47.514;18.920;2023-01-01T01:58:15;7.20;;;6.00;;
62535;SDS011;63050;47.514;18.920;2023-01-01T02:08:22;10.20;;;6.60;;
62535;SDS011;63050;47.514;18.920;2023-01-01T02:13:24;16.20;;;8.90;;
62535;SDS011;63050;47.514;18.920;2023-01-01T02:18:29;10.90;;;7.30;;
62535;SDS011;63050;47.514;18.920;2023-01-01T02:29:02;11.20;;;7.40;;
62535;SDS011;63050;47.514;18.920;2023-01-01T02:34:08;11.10;;;7.60;;
62535;SDS011;63050;47.514;18.920;2023-01-01T02:39:11;11.50;;;7.00;;
62535;SDS011;63050;47.514;18.920;2023-01-01T02:44:14;10.60;;;6.80;;
62535;SDS011;63050;47.514;18.920;2023-01-01T02:49:16;9.90;;;7.80;;
62535;SDS011;63050;47.514;18.920;2023-01-01T02:59:20;11.70;;;7.70;;
62535;SDS011;63050;47.514;18.920;2023-01-01T03:21:02;7.50;;;5.70;;
62535;SDS011;63050;47.514;18.920;2023-01-01T03:26:08;9.20;;;6.30;;
62535;SDS011;63050;47.514;18.920;2023-01-01T03:31:10;8.40;;;5.90;;
62535;SDS011;63050;47.514;18.920;2023-01-01T03:36:17;9.50;;;6.60;;
62535;SDS011;63050;47.514;18.920;2023-01-01T03:46:24;7.50;;;5.70;;
62535;SDS011;63050;47.514;18.920;2023-01-01T04:02:16;8.40;;;5.60;;
62535;SDS011;63050;47.514;18.920;2023-01-01T04:07:19;8.00;;;5.30;;
62535;SDS011;63050;47.514;18.920;2023-01-01T04:12:21;6.60;;;5.00;;
62535;SDS011;63050;47.514;18.920;2023-01-01T04:17:22;8.10;;;5.00;;
62535;SDS011;63050;47.514;18.920;2023-01-01T04:22:23;10.20;;;5.40;;
62535;SDS011;63050;47.514;18.920;2023-01-01T04:27:24;6.20;;;4.80;;
62535;SDS011;63050;47.514;18.920;2023-01-01T04:32:25;6.80;;;4.80;;
62535;SDS011;63050;47.514;18.920;2023-01-01T04:37:26;7.80;;;5.00;;
62535;SDS011;63050;47.514;18.920;2023-01-01T04:42:28;6.90;;;5.20;;
62535;SDS011;63050;47.514;18.920;2023-01-01T04:47:29;6.80;;;4.50;;
62535;SDS011;63050;47.514;18.920;2023-01-01T04:52:30;8.20;;;4.20;;
62535;SDS011;63050;47.514;18.920;2023-01-01T04:57:31;7.20;;;4.60;;
62535;SDS011;63050;47.514;18.920;2023-01-01T05:02:32;5.80;;;4.20;;
62535;SDS011;63050;47.514;18.920;2023-01-01T05:07:33;6.50;;;4.70;;
62535;SDS011;63050;47.514;18.920;2023-01-01T05:12:34;5.30;;;4.40;;
62535;SDS011;63050;47.514;18.920;2023-01-01T05:17:35;5.70;;;4.30;;
62535;SDS011;63050;47.514;18.920;2023-01-01T05:22:37;10.20;;;5.50;;
62535;SDS011;63050;47.514;18.920;2023-01-01T05:27:38;8.40;;;5.10;;
62535;SDS011;63050;47.514;18.920;2023-01-01T05:32:39;8.80;;;5.00;;
62535;SDS011;63050;47.514;18.920;2023-01-01T05:37:40;8.00;;;5.80;;
62535;SDS011;63050;47.514;18.920;2023-01-01T05:42:41;8.10;;;5.20;;
62535;SDS011;63050;47.514;18.920;2023-01-01T05:47:42;8.50;;;5.60;;
62535;SDS011;63050;47.514;18.920;2023-01-01T05:52:43;9.30;;;5.70;;
62535;SDS011;63050;47.514;18.920;2023-01-01T05:57:44;9.40;;;6.10;;
62535;SDS011;63050;47.514;18.920;2023-01-01T06:02:45;10.50;;;6.70;;
62535;SDS011;63050;47.514;18.920;2023-01-01T06:07:46;9.00;;;5.80;;
62535;SDS011;63050;47.514;18.920;2023-01-01T06:12:47;9.00;;;6.40;;
62535;SDS011;63050;47.514;18.920;2023-01-01T06:17:48;9.80;;;6.10;;
62535;SDS011;63050;47.514;18.920;2023-01-01T06:22:49;11.50;;;6.70;;
62535;SDS011;63050;47.514;18.920;2023-01-01T06:27:50;11.80;;;7.70;;
62535;SDS011;63050;47.514;18.920;2023-01-01T06:32:52;15.80;;;10.30;;
62535;SDS011;63050;47.514;18.920;2023-01-01T06:37:53;20.00;;;10.40;;
62535;SDS011;63050;47.514;18.920;2023-01-01T06:42:54;17.20;;;10.10;;
62535;SDS011;63050;47.514;18.920;2023-01-01T06:47:55;17.50;;;9.50;;
62535;SDS011;63050;47.514;18.920;2023-01-01T06:52:57;14.10;;;9.50;;
62535;SDS011;63050;47.514;18.920;2023-01-01T06:57:58;13.30;;;8.90;;
62535;SDS011;63050;47.514;18.920;2023-01-01T07:02:59;9.80;;;6.50;;
62535;SDS011;63050;47.514;18.920;2023-01-01T07:08:00;12.90;;;7.40;;
62535;SDS011;63050;47.514;18.920;2023-01-01T07:13:01;8.20;;;5.70;;
62535;SDS011;63050;47.514;18.920;2023-01-01T07:18:02;7.60;;;5.70;;
62535;SDS011;63050;47.514;18.920;2023-01-01T07:23:03;10.40;;;7.00;;
62535;SDS011;63050;47.514;18.920;2023-01-01T07:28:04;10.70;;;6.80;;
62535;SDS011;63050;47.514;18.920;2023-01-01T07:33:09;8.40;;;6.50;;
62535;SDS011;63050;47.514;18.920;2023-01-01T07:38:12;13.00;;;7.20;;
62535;SDS011;63050;47.514;18.920;2023-01-01T07:43:14;9.00;;;6.20;;
62535;SDS011;63050;47.514;18.920;2023-01-01T07:48:15;9.70;;;6.80;;
62535;SDS011;63050;47.514;18.920;2023-01-01T07:53:16;8.90;;;6.50;;
62535;SDS011;63050;47.514;18.920;2023-01-01T07:58:18;8.50;;;5.30;;
62535;SDS011;63050;47.514;18.920;2023-01-01T08:03:19;8.00;;;5.60;;
62535;SDS011;63050;47.514;18.920;2023-01-01T08:08:20;7.40;;;5.80;;
62535;SDS011;63050;47.514;18.920;2023-01-01T08:13:21;9.70;;;6.60;;
62535;SDS011;63050;47.514;18.920;2023-01-01T08:18:22;7.80;;;5.90;;
62535;SDS011;63050;47.514;18.920;2023-01-01T08:23:23;7.80;;;5.70;;
62535;SDS011;63050;47.514;18.920;2023-01-01T08:28:24;6.90;;;5.40;;
62535;SDS011;63050;47.514;18.920;2023-01-01T08:33:25;8.80;;;6.80;;
62535;SDS011;63050;47.514;18.920;2023-01-01T08:38:26;9.90;;;7.90;;
62535;SDS011;63050;47.514;18.920;2023-01-01T08:43:27;14.30;;;10.60;;
62535;SDS011;63050;47.514;18.920;2023-01-01T08:48:28;14.70;;;11.70;;
62535;SDS011;63050;47.514;18.920;2023-01-01T08:53:29;15.60;;;12.10;;
62535;SDS011;63050;47.514;18.920;2023-01-01T08:58:32;14.00;;;10.90;;
62535;SDS011;63050;47.514;18.920;2023-01-01T09:03:34;15.70;;;10.00;;
62535;SDS011;63050;47.514;18.920;2023-01-01T09:08:35;11.40;;;8.10;;
62535;SDS011;63050;47.514;18.920;2023-01-01T09:13:36;9.10;;;7.70;;
62535;SDS011;63050;47.514;18.920;2023-01-01T09:18:37;12.40;;;9.30;;
62535;SDS011;63050;47.514;18.920;2023-01-01T09:23:38;10.70;;;9.20;;
62535;SDS011;63050;47.514;18.920;2023-01-01T09:28:39;12.70;;;8.20;;
62535;SDS011;63050;47.514;18.920;2023-01-01T09:33:40;10.30;;;8.30;;
62535;SDS011;63050;47.514;18.920;2023-01-01T09:38:41;12.30;;;8.80;;
62535;SDS011;63050;47.514;18.920;2023-01-01T09:49:24;14.20;;;12.00;;
62535;SDS011;63050;47.514;18.920;2023-01-01T09:54:37;14.00;;;11.20;;
62535;SDS011;63050;47.514;18.920;2023-01-01T09:59:40;15.50;;;11.80;;
62535;SDS011;63050;47.514;18.920;2023-01-01T10:20:27;15.10;;;10.80;;
62535;SDS011;63050;47.514;18.920;2023-01-01T10:26:05;14.90;;;10.40;;
62535;SDS011;63050;47.514;18.920;2023-01-01T10:36:29;12.70;;;9.70;;
62535;SDS011;63050;47.514;18.920;2023-01-01T10:41:30;12.30;;;9.20;;
62535;SDS011;63050;47.514;18.920;2023-01-01T10:46:31;10.90;;;8.80;;
62535;SDS011;63050;47.514;18.920;2023-01-01T10:51:35;10.10;;;8.60;;
62535;SDS011;63050;47.514;18.920;2023-01-01T10:56:47;14.10;;;8.30;;
62535;SDS011;63050;47.514;18.920;2023-01-01T11:01:48;12.00;;;7.70;;
62535;SDS011;63050;47.514;18.920;2023-01-01T11:07:28;9.90;;;6.60;;
62535;SDS011;63050;47.514;18.920;2023-01-01T11:12:35;9.00;;;6.20;;
62535;SDS011;63050;47.514;18.920;2023-01-01T11:17:37;9.40;;;6.40;;
62535;SDS011;63050;47.514;18.920;2023-01-01T11:33:14;9.90;;;6.30;;
62535;SDS011;63050;47.514;18.920;2023-01-01T11:38:16;10.20;;;6.50;;
62535;SDS011;63050;47.514;18.920;2023-01-01T11:43:22;11.20;;;8.00;;
62535;SDS011;63050;47.514;18.920;2023-01-01T11:48:31;13.80;;;8.90;;
62535;SDS011;63050;47.514;18.920;2023-01-01T11:53:34;11.40;;;7.50;;
62535;SDS011;63050;47.514;18.920;2023-01-01T12:03:49;16.30;;;10.30;;
62535;SDS011;63050;47.514;18.920;2023-01-01T12:09:06;11.50;;;7.70;;
62535;SDS011;63050;47.514;18.920;2023-01-01T12:20:35;11.90;;;7.50;;
62535;SDS011;63050;47.514;18.920;2023-01-01T12:25:20;11.60;;;7.30;;
62535;SDS011;63050;47.514;18.920;2023-01-01T12:36:36;10.30;;;7.40;;
62535;SDS011;63050;47.514;18.920;2023-01-01T13:03:09;8.80;;;6.70;;
62535;SDS011;63050;47.514;18.920;2023-01-01T13:08:16;14.00;;;9.10;;
62535;SDS011;63050;47.514;18.920;2023-01-01T13:13:17;12.80;;;9.00;;
62535;SDS011;63050;47.514;18.920;2023-01-01T13:18:26;13.20;;;8.10;;
62535;SDS011;63050;47.514;18.920;2023-01-01T13:28:34;13.20;;;8.90;;
62535;SDS011;63050;47.514;18.920;2023-01-01T13:33:35;14.50;;;8.80;;
62535;SDS011;63050;47.514;18.920;2023-01-01T13:38:43;17.70;;;10.10;;
62535;SDS011;63050;47.514;18.920;2023-01-01T13:43:44;16.10;;;11.10;;
62535;SDS011;63050;47.514;18.920;2023-01-01T13:48:48;17.80;;;10.20;;
62535;SDS011;63050;47.514;18.920;2023-01-01T13:59:29;13.30;;;9.80;;
62535;SDS011;63050;47.514;18.920;2023-01-01T14:10:06;14.20;;;10.40;;
62535;SDS011;63050;47.514;18.920;2023-01-01T14:20:35;15.10;;;11.90;;
62535;SDS011;63050;47.514;18.920;2023-01-01T14:25:40;19.30;;;13.20;;
62535;SDS011;63050;47.514;18.920;2023-01-01T14:30:42;17.50;;;13.10;;
62535;SDS011;63050;47.514;18.920;2023-01-01T14:35:49;18.40;;;12.80;;
62535;SDS011;63050;47.514;18.920;2023-01-01T14:46:27;19.20;;;13.80;;
62535;SDS011;63050;47.514;18.920;2023-01-01T14:51:29;17.00;;;13.80;;
62535;SDS011;63050;47.514;18.920;2023-01-01T14:56:32;18.70;;;14.50;;
62535;SDS011;63050;47.514;18.920;2023-01-01T15:01:35;27.20;;;17.50;;
62535;SDS011;63050;47.514;18.920;2023-01-01T15:06:39;20.70;;;15.90;;
62535;SDS011;63050;47.514;18.920;2023-01-01T15:11:41;19.60;;;14.40;;
62535;SDS011;63050;47.514;18.920;2023-01-01T15:16:42;20.20;;;14.90;;
62535;SDS011;63050;47.514;18.920;2023-01-01T15:21:43;20.30;;;14.60;;
62535;SDS011;63050;47.514;18.920;2023-01-01T15:26:49;20.70;;;14.90;;
62535;SDS011;63050;47.514;18.920;2023-01-01T15:31:52;19.40;;;14.60;;
62535;SDS011;63050;47.514;18.920;2023-01-01T15:37:04;18.40;;;13.90;;
62535;SDS011;63050;47.514;18.920;2023-01-01T15:42:26;18.10;;;13.60;;
62535;SDS011;63050;47.514;18.920;2023-01-01T15:47:32;17.50;;;13.20;;
62535;SDS011;63050;47.514;18.920;2023-01-01T15:57:38;16.60;;;14.00;;
62535;SDS011;63050;47.514;18.920;2023-01-01T16:02:39;18.60;;;13.10;;
62535;SDS011;63050;47.514;18.920;2023-01-01T16:07:41;21.60;;;14.00;;
62535;SDS011;63050;47.514;18.920;2023-01-01T16:12:43;18.40;;;14.30;;
62535;SDS011;63050;47.514;18.920;2023-01-01T16:17:44;16.70;;;14.00;;
62535;SDS011;63050;47.514;18.920;2023-01-01T16:22:45;19.80;;;14.80;;
62535;SDS011;63050;47.514;18.920;2023-01-01T16:27:46;17.90;;;14.60;;
62535;SDS011;63050;47.514;18.920;2023-01-01T16:32:47;20.40;;;15.10;;
62535;SDS011;63050;47.514;18.920;2023-01-01T16:37:49;20.10;;;14.70;;
62535;SDS011;63050;47.514;18.920;2023-01-01T16:42:50;17.80;;;13.40;;
62535;SDS011;63050;47.514;18.920;2023-01-01T16:47:51;18.40;;;13.60;;
62535;SDS011;63050;47.514;18.920;2023-01-01T16:52:54;18.30;;;13.80;;
62535;SDS011;63050;47.514;18.920;2023-01-01T16:57:55;18.00;;;14.20;;
62535;SDS011;63050;47.514;18.920;2023-01-01T17:02:56;18.10;;;13.80;;
62535;SDS011;63050;47.514;18.920;2023-01-01T17:07:57;20.70;;;15.10;;
62535;SDS011;63050;47.514;18.920;2023-01-01T17:12:58;18.10;;;14.70;;
62535;SDS011;63050;47.514;18.920;2023-01-01T17:18:01;19.90;;;14.60;;
62535;SDS011;63050;47.514;18.920;2023-01-01T17:23:04;19.30;;;14.60;;
62535;SDS011;63050;47.514;18.920;2023-01-01T17:28:05;20.50;;;15.20;;
62535;SDS011;63050;47.514;18.920;2023-01-01T17:33:06;21.10;;;15.10;;
62535;SDS011;63050;47.514;18.920;2023-01-01T17:38:08;22.30;;;16.00;;
62535;SDS011;63050;47.514;18.920;2023-01-01T17:43:09;21.80;;;15.90;;
62535;SDS011;63050;47.514;18.920;2023-01-01T17:48:11;23.00;;;17.00;;
62535;SDS011;63050;47.514;18.920;2023-01-01T17:53:12;25.80;;;17.70;;
62535;SDS011;63050;47.514;18.920;2023-01-01T17:58:13;23.00;;;18.10;;
62535;SDS011;63050;47.514;18.920;2023-01-01T18:03:16;23.20;;;17.70;;
62535;SDS011;63050;47.514;18.920;2023-01-01T18:08:18;20.60;;;17.40;;
62535;SDS011;63050;47.514;18.920;2023-01-01T18:13:20;21.50;;;16.80;;
62535;SDS011;63050;47.514;18.920;2023-01-01T18:18:22;24.60;;;17.80;;
62535;SDS011;63050;47.514;18.920;2023-01-01T18:23:23;23.20;;;17.80;;
62535;SDS011;63050;47.514;18.920;2023-01-01T18:28:26;21.10;;;17.40;;
62535;SDS011;63050;47.514;18.920;2023-01-01T18:33:27;22.50;;;17.20;;
62535;SDS011;63050;47.514;18.920;2023-01-01T18:38:28;24.10;;;17.90;;
62535;SDS011;63050;47.514;18.920;2023-01-01T18:43:30;25.10;;;18.10;;
62535;SDS011;63050;47.514;18.920;2023-01-01T18:48:31;24.90;;;18.10;;
62535;SDS011;63050;47.514;18.920;2023-01-01T18:53:33;23.50;;;18.20;;
62535;SDS011;63050;47.514;18.920;2023-01-01T18:58:34;25.40;;;18.30;;
62535;SDS011;63050;47.514;18.920;2023-01-01T19:03:35;26.60;;;19.40;;
62535;SDS011;63050;47.514;18.920;2023-01-01T19:08:40;25.10;;;19.70;;
62535;SDS011;63050;47.514;18.920;2023-01-01T19:13:41;26.10;;;19.30;;
62535;SDS011;63050;47.514;18.920;2023-01-01T19:18:44;26.60;;;19.00;;
62535;SDS011;63050;47.514;18.920;2023-01-01T19:23:56;26.50;;;19.30;;
62535;SDS011;63050;47.514;18.920;2023-01-01T19:29:03;24.10;;;18.00;;
62535;SDS011;63050;47.514;18.920;2023-01-01T19:34:12;26.50;;;19.20;;
62535;SDS011;63050;47.514;18.920;2023-01-01T19:39:14;26.50;;;19.60;;
62535;SDS011;63050;47.514;18.920;2023-01-01T19:44:17;25.00;;;19.00;;
62535;SDS011;63050;47.514;18.920;2023-01-01T19:49:19;28.00;;;19.90;;
62535;SDS011;63050;47.514;18.920;2023-01-01T19:54:21;26.30;;;19.00;;
62535;SDS011;63050;47.514;18.920;2023-01-01T19:59:22;29.60;;;21.70;;
62535;SDS011;63050;47.514;18.920;2023-01-01T20:04:24;26.50;;;20.10;;
62535;SDS011;63050;47.514;18.920;2023-01-01T20:09:29;24.10;;;18.90;;
62535;SDS011;63050;47.514;18.920;2023-01-01T20:14:31;27.60;;;20.10;;
62535;SDS011;63050;47.514;18.920;2023-01-01T20:19:34;26.40;;;19.90;;
62535;SDS011;63050;47.514;18.920;2023-01-01T20:24:38;29.60;;;20.60;;
62535;SDS011;63050;47.514;18.920;2023-01-01T20:29:45;26.30;;;20.30;;
62535;SDS011;63050;47.514;18.920;2023-01-01T20:34:49;29.30;;;20.80;;
62535;SDS011;63050;47.514;18.920;2023-01-01T20:39:56;28.10;;;21.00;;
62535;SDS011;63050;47.514;18.920;2023-01-01T20:45:04;32.60;;;21.00;;
62535;SDS011;63050;47.514;18.920;2023-01-01T20:50:10;24.20;;;18.90;;
62535;SDS011;63050;47.514;18.920;2023-01-01T20:55:13;28.40;;;21.30;;
62535;SDS011;63050;47.514;18.920;2023-01-01T21:00:15;25.70;;;20.60;;
62535;SDS011;63050;47.514;18.920;2023-01-01T21:05:21;26.20;;;20.10;;
62535;SDS011;63050;47.514;18.920;2023-01-01T21:10:25;30.10;;;21.30;;
62535;SDS011;63050;47.514;18.920;2023-01-01T21:15:28;28.90;;;22.00;;
62535;SDS011;63050;47.514;18.920;2023-01-01T21:20:34;28.00;;;21.40;;
62535;SDS011;63050;47.514;18.920;2023-01-01T21:25:38;29.80;;;21.30;;
62535;SDS011;63050;47.514;18.920;2023-01-01T21:30:46;25.40;;;19.60;;
62535;SDS011;63050;47.514;18.920;2023-01-01T21:35:51;26.80;;;20.40;;
62535;SDS011;63050;47.514;18.920;2023-01-01T21:40:54;26.70;;;19.50;;
62535;SDS011;63050;47.514;18.920;2023-01-01T21:46:01;27.00;;;20.10;;
62535;SDS011;63050;47.514;18.920;2023-01-01T21:51:03;27.20;;;20.90;;
62535;SDS011;63050;47.514;18.920;2023-01-01T21:56:21;26.20;;;20.20;;
62535;SDS011;63050;47.514;18.920;2023-01-01T22:01:29;26.20;;;19.40;;
62535;SDS011;63050;47.514;18.920;2023-01-01T22:06:38;28.70;;;20.90;;
62535;SDS011;63050;47.514;18.920;2023-01-01T22:11:42;25.60;;;19.90;;
62535;SDS011;63050;47.514;18.920;2023-01-01T22:16:44;26.10;;;20.50;;
62535;SDS011;63050;47.514;18.920;2023-01-01T22:21:47;28.80;;;20.60;;
62535;SDS011;63050;47.514;18.920;2023-01-01T22:26:49;25.40;;;20.10;;
62535;SDS011;63050;47.514;18.920;2023-01-01T22:31:58;25.70;;;20.80;;
62535;SDS011;63050;47.514;18.920;2023-01-01T22:37:04;27.40;;;20.70;;
62535;SDS011;63050;47.514;18.920;2023-01-01T22:42:14;28.00;;;20.70;;
62535;SDS011;63050;47.514;18.920;2023-01-01T22:47:17;24.50;;;20.10;;
62535;SDS011;63050;47.514;18.920;2023-01-01T22:52:18;27.20;;;20.10;;
62535;SDS011;63050;47.514;18.920;2023-01-01T22:57:19;28.10;;;21.30;;
62535;SDS011;63050;47.514;18.920;2023-01-01T23:02:20;27.50;;;20.60;;
62535;SDS011;63050;47.514;18.920;2023-01-01T23:07:21;27.90;;;20.50;;
62535;SDS011;63050;47.514;18.920;2023-01-01T23:12:22;28.10;;;21.00;;
62535;SDS011;63050;47.514;18.920;2023-01-01T23:17:23;28.10;;;20.90;;
62535;SDS011;63050;47.514;18.920;2023-01-01T23:22:25;25.80;;;20.40;;
62535;SDS011;63050;47.514;18.920;2023-01-01T23:27:28;25.50;;;19.30;;
62535;SDS011;63050;47.514;18.920;2023-01-01T23:32:29;24.10;;;19.50;;
62535;SDS011;63050;47.514;18.920;2023-01-01T23:37:31;25.70;;;20.00;;
62535;SDS011;63050;47.514;18.920;2023-01-01T23:42:32;25.40;;;19.80;;
62535;SDS011;63050;47.514;18.920;2023-01-01T23:47:33;26.20;;;20.70;;
62535;SDS011;63050;47.514;18.920;2023-01-01T23:52:34;25.60;;;20.60;;
62535;SDS011;63050;47.514;18.920;2023-01-01T23:57:35;26.80;;;20.50;;
